createdAt,value
2019-03-11T00:00:35.942Z,4.03
2019-03-11T00:03:05.754Z,4.33
2019-03-11T00:05:35.040Z,4.43
2019-03-11T00:08:04.242Z,4.53
2019-03-11T00:10:33.441Z,4.00
2019-03-11T00:13:02.764Z,4.53
2019-03-11T00:15:31.952Z,5.17
2019-03-11T00:18:01.242Z,4.27
2019-03-11T00:20:30.443Z,3.67
2019-03-11T00:22:59.649Z,5.07
2019-03-11T00:25:28.951Z,4.07
2019-03-11T00:27:58.232Z,3.30
2019-03-11T00:30:27.420Z,3.67
2019-03-11T00:32:56.612Z,3.60
2019-03-11T00:35:25.914Z,3.53
2019-03-11T00:37:55.207Z,3.67
2019-03-11T00:40:24.378Z,4.57
2019-03-11T00:42:53.654Z,2.93
2019-03-11T00:45:24.296Z,3.17
2019-03-11T00:48:01.838Z,3.13
2019-03-11T00:50:25.104Z,3.33
2019-03-11T00:52:54.473Z,3.80
2019-03-11T00:55:23.748Z,3.10
2019-03-11T00:57:53.192Z,3.53
2019-03-11T01:00:30.434Z,3.30
2019-03-11T01:02:59.720Z,3.23
2019-03-11T01:05:28.920Z,3.27
2019-03-11T01:07:58.227Z,3.13
2019-03-11T01:10:27.597Z,3.33
2019-03-11T01:12:56.801Z,4.00
2019-03-11T01:15:26.113Z,3.67
2019-03-11T01:17:55.386Z,3.20
2019-03-11T01:20:24.698Z,3.70
2019-03-11T01:22:53.941Z,3.80
2019-03-11T01:25:23.138Z,4.20
2019-03-11T01:27:52.400Z,4.03
2019-03-11T01:30:21.635Z,4.27
2019-03-11T01:32:50.836Z,4.33
2019-03-11T01:35:20.049Z,3.90
2019-03-11T01:37:49.137Z,3.37
2019-03-11T01:40:18.494Z,4.20
2019-03-11T01:42:47.939Z,4.10
2019-03-11T01:45:17.416Z,4.33
2019-03-11T01:47:46.718Z,4.70
2019-03-11T01:50:16.767Z,4.70
2019-03-11T01:52:46.077Z,4.50
2019-03-11T01:55:15.696Z,4.50
2019-03-11T12:29:49.349Z,2.73
2019-03-11T12:32:18.832Z,3.20
2019-03-11T12:34:48.054Z,2.50
2019-03-11T12:37:17.305Z,3.60
2019-03-11T12:39:46.458Z,2.50
2019-03-11T12:42:15.677Z,2.77
2019-03-11T12:44:44.937Z,2.10
2019-03-11T12:47:14.259Z,2.73
2019-03-11T12:49:43.428Z,2.40
2019-03-11T12:52:12.530Z,2.27
2019-03-11T12:54:41.740Z,2.50
2019-03-11T12:57:11.025Z,2.83
2019-03-11T12:59:40.725Z,2.63
2019-03-11T13:02:10.173Z,2.50
2019-03-11T13:04:39.374Z,2.40
2019-03-11T13:07:08.590Z,3.53
2019-03-11T13:09:37.715Z,2.83
2019-03-11T13:12:07.029Z,6.50
2019-03-11T13:14:36.294Z,3.83
2019-03-11T13:17:05.425Z,3.50
2019-03-11T13:19:34.592Z,2.87
2019-03-11T13:22:03.948Z,3.20
2019-03-11T13:24:33.039Z,3.17
2019-03-11T13:27:02.279Z,2.90
2019-03-11T13:29:31.456Z,2.50
2019-03-11T13:32:00.707Z,3.40
2019-03-11T13:34:29.943Z,3.17
2019-03-11T13:36:59.237Z,3.00
2019-03-11T13:39:28.409Z,2.97
2019-03-11T13:41:57.530Z,2.50
2019-03-11T13:44:26.726Z,2.83
2019-03-11T13:46:55.928Z,3.87
2019-03-11T13:49:25.072Z,3.67
2019-03-11T13:51:54.381Z,2.70
2019-03-11T13:54:23.628Z,4.20
2019-03-11T13:56:52.896Z,3.87
2019-03-11T13:59:22.028Z,3.10
2019-03-11T14:01:51.273Z,3.50
2019-03-11T14:04:20.599Z,2.90
2019-03-11T14:06:49.763Z,4.23
2019-03-11T14:09:18.924Z,3.60
2019-03-11T14:11:48.032Z,4.07
2019-03-11T14:14:17.241Z,3.13
2019-03-11T14:16:46.530Z,4.00
2019-03-11T14:19:15.797Z,3.27
2019-03-11T14:21:45.095Z,3.93
2019-03-11T14:24:14.392Z,2.70
2019-03-11T14:26:43.748Z,4.70
2019-03-11T14:29:13.088Z,4.33
2019-03-11T14:31:42.365Z,3.20
2019-03-11T14:34:11.554Z,5.60
2019-03-11T14:36:40.731Z,3.23
2019-03-11T14:39:10.192Z,3.30
2019-03-11T14:41:39.360Z,3.37
2019-03-11T14:44:08.670Z,2.80
2019-03-11T14:46:37.884Z,2.90
2019-03-11T14:49:07.090Z,2.97
2019-03-11T14:51:36.967Z,3.00
2019-03-11T14:54:06.309Z,3.33
2019-03-11T14:56:35.634Z,2.80
2019-03-11T14:59:04.862Z,3.20
2019-03-11T15:01:34.145Z,3.53
2019-03-11T15:04:03.336Z,3.47
2019-03-11T15:06:32.542Z,3.40
2019-03-11T15:09:01.760Z,2.90
2019-03-11T15:11:30.946Z,2.37
2019-03-11T15:14:00.189Z,3.20
2019-03-11T15:16:29.478Z,2.73
2019-03-11T15:18:58.677Z,2.97
2019-03-11T15:21:27.868Z,2.97
2019-03-11T15:23:57.002Z,2.90
2019-03-11T15:26:26.393Z,2.10
2019-03-11T15:28:55.616Z,2.63
2019-03-11T15:31:24.877Z,2.53
2019-03-11T15:33:54.107Z,2.30
2019-03-11T15:36:33.176Z,2.57
2019-03-11T15:38:54.807Z,1.93
2019-03-11T15:41:24.105Z,2.57
2019-03-11T15:43:53.412Z,2.40
2019-03-11T15:46:22.925Z,2.60
2019-03-11T15:48:52.263Z,2.07
2019-03-11T15:51:21.479Z,2.27
2019-03-11T15:53:50.722Z,2.07
2019-03-11T15:56:19.940Z,2.60
2019-03-11T15:58:49.132Z,2.00
2019-03-11T16:01:20.744Z,2.20
2019-03-11T16:03:50.014Z,2.33
2019-03-11T16:06:19.701Z,2.07
2019-03-11T16:08:48.886Z,2.10
2019-03-11T16:11:20.456Z,2.30
2019-03-11T16:13:49.695Z,2.47
2019-03-11T16:16:19.143Z,2.47
2019-03-11T16:18:51.256Z,10.07
2019-03-11T16:21:20.843Z,14.87
2019-03-11T16:23:50.093Z,10.30
2019-03-11T16:26:19.393Z,16.23
2019-03-11T16:28:48.711Z,7.90
2019-03-11T16:31:17.994Z,8.60
2019-03-11T16:33:47.917Z,7.97
2019-03-11T16:36:17.424Z,2.67
2019-03-11T16:38:46.665Z,2.67
2019-03-11T16:41:16.032Z,2.13
2019-03-11T16:43:45.268Z,2.07
2019-03-11T16:46:14.505Z,2.10
2019-03-11T16:48:43.816Z,2.13
2019-03-11T16:51:13.187Z,3.37
2019-03-11T16:53:42.408Z,2.90
2019-03-11T16:56:11.728Z,2.87
2019-03-11T16:58:41.075Z,2.47
2019-03-11T17:01:11.040Z,2.60
2019-03-11T17:03:40.325Z,3.73
2019-03-11T17:06:09.740Z,3.17
2019-03-11T17:08:38.977Z,2.87
2019-03-11T17:11:08.301Z,2.60
2019-03-11T17:13:37.769Z,2.80
2019-03-11T17:16:07.186Z,2.73
2019-03-11T17:18:36.413Z,2.50
2019-03-11T17:21:05.725Z,2.67
2019-03-11T17:23:35.007Z,2.13
2019-03-11T17:26:04.205Z,2.80
2019-03-11T17:28:33.972Z,2.50
2019-03-11T17:31:03.637Z,2.10
2019-03-11T17:33:32.929Z,1.90
2019-03-11T17:36:02.194Z,2.10
2019-03-11T17:38:31.433Z,2.50
2019-03-11T17:41:00.733Z,2.40
2019-03-11T17:43:30.030Z,2.10
2019-03-11T17:45:59.194Z,2.03
2019-03-11T17:48:28.484Z,2.23
2019-03-11T17:50:57.745Z,2.43
2019-03-11T17:53:26.857Z,2.90
2019-03-11T17:55:56.015Z,2.50
2019-03-11T17:58:25.330Z,2.60
2019-03-11T18:01:06.262Z,3.30
2019-03-11T18:03:35.581Z,4.17
2019-03-11T18:06:11.651Z,4.13
2019-03-11T18:08:35.855Z,3.53
2019-03-11T18:11:05.107Z,4.50
2019-03-11T18:13:34.388Z,2.70
2019-03-11T18:16:03.711Z,3.07
2019-03-11T18:18:33.615Z,2.53
2019-03-11T18:21:02.931Z,2.57
2019-03-11T18:23:32.255Z,2.43
2019-03-11T18:26:01.380Z,2.13
2019-03-11T18:28:30.657Z,2.33
2019-03-11T18:30:59.926Z,2.77
2019-03-11T18:33:29.165Z,3.33
2019-03-11T18:35:58.622Z,2.40
2019-03-11T18:38:27.909Z,3.03
2019-03-11T18:40:57.090Z,3.47
2019-03-11T18:43:26.329Z,3.20
2019-03-11T18:45:55.598Z,2.83
2019-03-11T18:48:24.794Z,2.60
2019-03-11T18:50:53.999Z,2.50
2019-03-11T18:53:23.280Z,2.70
2019-03-11T18:55:52.544Z,3.10
2019-03-11T18:58:21.844Z,2.97
2019-03-11T19:00:51.086Z,4.23
2019-03-11T19:03:20.322Z,3.70
2019-03-11T19:05:49.501Z,4.53
2019-03-11T19:08:18.831Z,4.23
2019-03-11T19:10:48.025Z,4.70
2019-03-11T19:13:17.239Z,4.17
2019-03-11T19:15:46.478Z,4.83
2019-03-11T19:18:15.703Z,5.30
2019-03-11T19:20:44.887Z,4.83
2019-03-11T19:23:14.153Z,5.40
2019-03-11T19:25:43.687Z,5.30
2019-03-11T19:28:12.966Z,5.37
2019-03-11T19:30:42.257Z,4.70
2019-03-11T19:33:11.514Z,5.10
2019-03-11T19:35:40.775Z,4.87
2019-03-11T19:38:09.912Z,4.50
2019-03-11T19:40:39.163Z,6.37
2019-03-11T19:43:08.413Z,3.53
2019-03-11T19:45:38.693Z,4.27
2019-03-11T19:48:07.894Z,4.37
2019-03-11T19:50:37.129Z,3.70
2019-03-11T19:53:06.378Z,3.57
2019-03-11T19:55:35.641Z,4.03
2019-03-11T19:58:04.883Z,4.10
2019-03-11T20:00:34.171Z,4.50
2019-03-11T20:03:03.493Z,3.87
2019-03-11T20:05:32.793Z,4.53
2019-03-11T20:08:02.067Z,4.47
2019-03-11T20:10:31.867Z,4.80
2019-03-11T20:13:01.095Z,5.17
2019-03-11T20:15:30.281Z,5.10
2019-03-11T20:17:59.610Z,4.77
2019-03-11T20:20:28.864Z,6.10
2019-03-11T20:22:57.987Z,4.37
2019-03-11T20:25:27.861Z,4.20
2019-03-11T20:27:57.108Z,4.80
2019-03-11T20:30:26.647Z,3.90
2019-03-11T20:32:55.902Z,4.47
2019-03-11T20:35:25.096Z,4.90
2019-03-11T20:37:54.378Z,3.63
2019-03-11T20:40:23.641Z,3.50
2019-03-11T20:42:52.873Z,3.10
2019-03-11T20:45:22.968Z,3.00
2019-03-11T20:47:52.361Z,3.10
2019-03-11T20:50:21.576Z,5.03
2019-03-11T20:52:50.868Z,6.00
2019-03-11T20:55:20.238Z,3.50
2019-03-11T20:57:49.629Z,3.27
2019-03-11T21:00:20.825Z,2.93
2019-03-11T21:02:50.149Z,3.10
2019-03-11T21:05:21.776Z,4.00
2019-03-11T21:07:50.942Z,3.83
2019-03-11T21:10:20.407Z,3.27
2019-03-11T21:12:49.681Z,3.40
2019-03-11T21:15:19.177Z,5.00
2019-03-11T21:17:48.418Z,5.03
2019-03-11T21:20:17.817Z,4.20
2019-03-11T21:22:47.140Z,4.90
2019-03-11T21:25:16.919Z,4.20
2019-03-11T21:27:46.621Z,5.10
2019-03-11T21:30:17.801Z,6.93
2019-03-11T21:32:47.138Z,6.13
2019-03-11T21:35:16.973Z,5.63
2019-03-11T21:37:46.362Z,5.47
2019-03-11T21:40:16.748Z,4.43
2019-03-11T21:42:46.118Z,4.50
2019-03-11T21:45:15.576Z,4.10
2019-03-11T21:47:44.782Z,4.70
2019-03-11T21:50:16.387Z,4.53
2019-03-11T21:52:45.622Z,4.47
2019-03-11T21:55:14.919Z,4.00
2019-03-11T21:57:44.228Z,4.90
2019-03-11T22:00:15.929Z,4.27
2019-03-11T22:02:45.114Z,4.30
2019-03-11T22:05:14.306Z,4.30
2019-03-11T22:07:43.457Z,5.07
2019-03-11T22:10:13.144Z,3.90
2019-03-11T22:12:42.350Z,4.10
2019-03-11T22:15:12.460Z,4.10
2019-03-11T22:17:41.665Z,4.40
2019-03-11T22:20:12.244Z,4.93
2019-03-11T22:22:41.353Z,4.23
2019-03-11T22:25:11.906Z,4.70
2019-03-11T22:27:41.154Z,4.43
2019-03-11T22:30:16.340Z,4.03
2019-03-11T22:32:45.638Z,3.53
2019-03-11T22:35:15.124Z,4.47
2019-03-11T22:37:44.317Z,3.13
2019-03-11T22:40:13.583Z,3.63
2019-03-11T22:42:42.822Z,3.47
2019-03-11T22:45:12.490Z,4.47
2019-03-11T22:47:41.820Z,3.47
2019-03-11T22:50:11.258Z,3.60
2019-03-11T22:52:59.471Z,3.80
2019-03-11T22:55:28.806Z,4.20
2019-03-11T22:57:58.143Z,4.63
2019-03-11T23:00:41.590Z,4.47
2019-03-11T23:03:11.544Z,4.57
2019-03-11T23:05:56.606Z,3.77
2019-03-11T23:08:11.850Z,4.33
2019-03-11T23:10:41.155Z,4.03
2019-03-11T23:13:10.337Z,4.10
2019-03-11T23:15:39.548Z,5.87
2019-03-11T23:18:08.769Z,5.40
2019-03-11T23:20:37.994Z,5.03
2019-03-11T23:23:07.244Z,4.33
2019-03-11T23:25:36.393Z,3.57
2019-03-11T23:28:05.665Z,3.53
2019-03-11T23:30:34.841Z,4.17
2019-03-11T23:33:03.980Z,3.70
2019-03-11T23:35:33.262Z,4.23
2019-03-11T23:38:02.468Z,3.67
2019-03-11T23:40:31.584Z,3.50
2019-03-11T23:43:00.909Z,3.47
2019-03-11T23:45:39.173Z,3.70
2019-03-11T23:48:08.362Z,3.60
2019-03-11T23:50:37.541Z,5.10
2019-03-11T23:53:06.708Z,4.00
2019-03-11T23:55:35.845Z,3.83
2019-03-11T23:58:04.920Z,3.60
